createdAt,value
2018-06-19T00:01:08.959Z,9.10
2018-06-19T00:02:08.589Z,9.70
2018-06-19T00:03:08.584Z,9.20
2018-06-19T00:04:08.597Z,9.80
2018-06-19T00:05:08.614Z,9.50
2018-06-19T00:09:08.681Z,8.60
2018-06-19T00:10:08.813Z,9.20
2018-06-19T00:11:08.714Z,8.70
2018-06-19T00:12:08.728Z,9.10
2018-06-19T00:13:08.745Z,8.60
2018-06-19T00:14:08.760Z,8.80
2018-06-19T00:15:08.777Z,8.60
2018-06-19T00:16:08.795Z,8.80
2018-06-19T00:17:08.808Z,8.00
2018-06-19T00:18:08.826Z,8.30
2018-06-19T00:19:08.844Z,8.10
2018-06-19T00:20:08.869Z,8.40
2018-06-19T00:21:08.875Z,8.20
2018-06-19T00:22:08.890Z,7.80
2018-06-19T00:23:08.911Z,7.90
2018-06-19T00:24:08.922Z,8.10
2018-06-19T00:25:08.938Z,7.30
2018-06-19T00:26:08.957Z,7.70
2018-06-19T00:27:08.975Z,7.90
2018-06-19T00:28:08.994Z,7.50
2018-06-19T00:29:09.118Z,7.30
2018-06-19T00:30:09.259Z,7.10
2018-06-19T00:31:09.240Z,7.40
2018-06-19T00:32:09.054Z,7.00
2018-06-19T00:33:09.070Z,7.40
2018-06-19T00:34:09.086Z,7.10
2018-06-19T00:35:09.103Z,6.90
2018-06-19T00:36:09.117Z,6.70
2018-06-19T00:37:09.133Z,6.30
2018-06-19T00:38:09.157Z,6.20
2018-06-19T00:39:09.167Z,6.00
2018-06-19T00:40:09.183Z,5.60
2018-06-19T00:43:09.244Z,4.90
2018-06-19T00:44:09.246Z,5.60
2018-06-19T00:45:09.262Z,5.50
2018-06-19T00:46:09.279Z,5.20
2018-06-19T00:47:09.309Z,5.80
2018-06-19T00:48:09.310Z,5.40
2018-06-19T00:49:09.326Z,5.40
2018-06-19T00:50:09.348Z,5.40
2018-06-19T00:51:09.357Z,5.00
2018-06-19T00:52:09.379Z,5.50
2018-06-19T00:53:09.391Z,5.00
2018-06-19T00:54:09.408Z,5.00
2018-06-19T00:55:09.424Z,5.40
2018-06-19T00:56:09.440Z,4.90
2018-06-19T00:57:09.457Z,4.70
2018-06-19T00:58:09.471Z,4.60
2018-06-19T00:59:09.491Z,4.60
2018-06-19T01:00:09.503Z,4.60
2018-06-19T01:02:09.540Z,3.70
2018-06-19T01:04:09.581Z,4.20
2018-06-19T01:05:09.584Z,3.90
2018-06-19T01:06:09.602Z,4.00
2018-06-19T01:07:09.616Z,3.70
2018-06-19T01:08:09.630Z,3.90
2018-06-19T01:09:09.647Z,3.70
2018-06-19T01:10:09.680Z,4.10
2018-06-19T01:11:09.682Z,3.70
2018-06-19T01:12:09.699Z,3.90
2018-06-19T01:13:09.712Z,3.50
2018-06-19T01:14:09.728Z,3.80
2018-06-19T01:16:09.857Z,3.70
2018-06-19T01:17:09.777Z,3.50
2018-06-19T01:18:09.794Z,3.70
2018-06-19T01:19:09.810Z,3.90
2018-06-19T01:20:09.824Z,3.80
2018-06-19T01:21:09.841Z,3.80
2018-06-19T01:22:09.858Z,3.70
2018-06-19T01:23:09.873Z,4.40
2018-06-19T01:24:09.890Z,3.90
2018-06-19T01:25:09.907Z,4.00
2018-06-19T01:26:09.923Z,4.20
2018-06-19T01:27:09.939Z,4.00
2018-06-19T01:28:09.954Z,5.20
2018-06-19T01:29:09.971Z,4.00
2018-06-19T01:30:09.987Z,4.10
2018-06-19T01:31:10.006Z,3.90
2018-06-19T01:32:10.021Z,4.20
2018-06-19T01:33:10.037Z,3.90
2018-06-19T01:34:10.171Z,4.20
2018-06-19T01:35:10.262Z,4.30
2018-06-19T01:36:10.289Z,4.30
2018-06-19T01:37:10.476Z,4.40
2018-06-19T01:38:10.199Z,4.20
2018-06-19T01:39:10.234Z,4.40
2018-06-19T01:40:10.150Z,4.20
2018-06-19T01:41:10.168Z,4.30
2018-06-19T01:42:10.182Z,4.50
2018-06-19T01:43:10.197Z,4.40
2018-06-19T01:44:10.213Z,4.20
2018-06-19T01:45:10.230Z,4.60
2018-06-19T01:46:10.245Z,4.40
2018-06-19T01:47:10.269Z,4.70
2018-06-19T01:48:10.280Z,4.40
2018-06-19T01:49:10.347Z,4.50
2018-06-19T01:50:10.321Z,4.50
2018-06-19T01:51:10.328Z,3.90
2018-06-19T01:52:10.342Z,4.50
2018-06-19T01:53:10.358Z,4.00
2018-06-19T01:54:10.375Z,4.10
2018-06-19T01:55:10.393Z,4.10
2018-06-19T01:56:10.406Z,4.20
2018-06-19T01:57:10.429Z,4.50
2018-06-19T01:58:10.438Z,4.00
2018-06-19T01:59:10.465Z,4.20
2018-06-19T02:00:10.472Z,4.30
2018-06-19T02:01:10.487Z,4.10
2018-06-19T02:02:10.506Z,3.90
2018-06-19T02:03:10.521Z,4.20
2018-06-19T02:04:10.536Z,3.80
2018-06-19T02:05:10.558Z,3.70
2018-06-19T02:06:10.570Z,3.70
2018-06-19T02:07:10.587Z,3.50
2018-06-19T02:08:10.810Z,3.90
2018-06-19T02:09:10.617Z,3.80
2018-06-19T02:10:10.637Z,3.80
2018-06-19T02:11:10.654Z,3.50
2018-06-19T02:12:10.666Z,3.70
2018-06-19T02:13:10.681Z,3.30
2018-06-19T02:14:10.697Z,3.70
2018-06-19T02:15:10.716Z,3.40
2018-06-19T02:16:10.731Z,3.90
2018-06-19T02:17:10.748Z,3.40
2018-06-19T02:18:10.764Z,3.30
2018-06-19T02:19:10.795Z,3.40
2018-06-19T02:20:10.802Z,3.50
2018-06-19T02:21:10.811Z,3.30
2018-06-19T02:22:10.826Z,3.20
2018-06-19T02:23:10.847Z,3.10
2018-06-19T02:24:10.860Z,3.30
2018-06-19T02:25:10.876Z,3.50
2018-06-19T02:26:10.892Z,2.70
2018-06-19T02:27:10.909Z,3.00
2018-06-19T02:28:10.931Z,3.10
2018-06-19T02:29:10.944Z,3.00
2018-06-19T02:30:10.960Z,2.90
2018-06-19T02:31:10.974Z,3.10
2018-06-19T02:32:10.991Z,2.80
2018-06-19T02:33:11.007Z,2.90
2018-06-19T02:34:11.023Z,3.50
2018-06-19T02:35:11.037Z,2.80
2018-06-19T02:36:11.055Z,3.30
2018-06-19T02:37:11.070Z,3.10
2018-06-19T02:38:11.090Z,3.00
2018-06-19T02:39:11.102Z,3.50
2018-06-19T02:40:11.121Z,3.10
2018-06-19T02:41:11.172Z,3.30
2018-06-19T02:42:11.425Z,3.10
2018-06-19T02:43:11.356Z,3.50
2018-06-19T02:44:11.185Z,3.10
2018-06-19T02:45:11.204Z,3.20
2018-06-19T02:46:11.216Z,3.20
2018-06-19T02:47:11.236Z,3.00
2018-06-19T02:48:11.249Z,3.40
2018-06-19T02:49:11.313Z,3.50
2018-06-19T02:50:11.277Z,3.30
2018-06-19T02:51:11.551Z,3.00
2018-06-19T02:52:11.309Z,3.20
2018-06-19T02:53:11.332Z,3.30
2018-06-19T02:54:11.345Z,3.60
2018-06-19T02:55:11.359Z,3.30
2018-06-19T02:56:11.376Z,3.20
2018-06-19T02:57:11.392Z,3.50
2018-06-19T02:58:11.411Z,3.30
2018-06-19T02:59:11.428Z,3.00
2018-06-19T03:00:11.438Z,3.20
2018-06-19T03:01:11.458Z,3.70
2018-06-19T03:02:11.472Z,3.30
2018-06-19T03:03:11.496Z,3.00
2018-06-19T03:04:11.511Z,2.90
2018-06-19T03:05:11.522Z,3.20
2018-06-19T03:06:11.539Z,3.50
2018-06-19T03:07:11.554Z,3.20
2018-06-19T03:08:11.570Z,2.70
2018-06-19T03:09:11.584Z,3.30
2018-06-19T03:10:11.604Z,3.10
2018-06-19T03:11:11.636Z,3.00
2018-06-19T03:12:11.633Z,3.00
2018-06-19T03:13:11.654Z,3.40
2018-06-19T03:14:11.870Z,3.00
2018-06-19T03:15:11.752Z,2.90
2018-06-19T03:16:11.705Z,3.20
2018-06-19T03:17:11.711Z,2.90
2018-06-19T03:18:11.793Z,3.20
2018-06-19T03:19:11.746Z,3.40
2018-06-19T03:20:11.761Z,3.10
2018-06-19T03:21:11.776Z,2.80
2018-06-19T03:22:11.794Z,3.10
2018-06-19T03:23:11.810Z,3.50
2018-06-19T03:24:11.823Z,2.90
2018-06-19T03:26:11.966Z,3.00
2018-06-19T03:27:11.874Z,3.40
2018-06-19T03:28:11.893Z,3.10
2018-06-19T03:29:11.905Z,2.90
2018-06-19T03:30:11.965Z,2.90
2018-06-19T03:31:11.945Z,3.00
2018-06-19T03:32:11.956Z,3.20
2018-06-19T03:33:11.980Z,3.40
2018-06-19T03:34:11.985Z,3.20
2018-06-19T03:35:12.002Z,3.10
2018-06-19T03:36:12.017Z,2.90
2018-06-19T03:37:12.035Z,2.70
2018-06-19T03:38:12.053Z,2.90
2018-06-19T03:39:12.068Z,3.10
2018-06-19T03:40:12.081Z,3.20
2018-06-19T03:41:12.098Z,3.00
2018-06-19T03:42:12.113Z,3.40
2018-06-19T03:43:12.129Z,3.10
2018-06-19T03:44:12.147Z,2.80
2018-06-19T03:45:12.170Z,3.00
2018-06-19T03:46:12.178Z,3.00
2018-06-19T03:47:12.196Z,3.00
2018-06-19T03:48:12.208Z,2.60
2018-06-19T03:49:12.225Z,3.00
2018-06-19T03:50:12.248Z,3.40
2018-06-19T03:51:12.342Z,3.60
2018-06-19T03:52:12.273Z,3.40
2018-06-19T03:53:12.320Z,3.40
2018-06-19T03:54:12.308Z,3.60
2018-06-19T03:55:12.323Z,3.10
2018-06-19T03:56:12.338Z,3.30
2018-06-19T03:57:12.361Z,3.20
2018-06-19T03:58:12.370Z,2.90
2018-06-19T03:59:12.385Z,3.60
2018-06-19T04:00:12.405Z,3.30
2018-06-19T04:01:12.434Z,3.40
2018-06-19T04:02:12.435Z,3.20
2018-06-19T04:03:12.453Z,2.90
2018-06-19T04:04:12.464Z,3.50
2018-06-19T04:05:12.481Z,3.10
2018-06-19T04:06:12.498Z,3.50
2018-06-19T04:07:12.515Z,3.30
2018-06-19T04:08:12.537Z,3.30
2018-06-19T04:09:12.545Z,3.20
2018-06-19T04:10:12.566Z,3.30
2018-06-19T04:11:12.578Z,3.20
2018-06-19T04:12:12.599Z,3.60
2018-06-19T04:13:12.610Z,3.10
2018-06-19T04:14:12.831Z,3.30
2018-06-19T04:15:12.647Z,3.20
2018-06-19T04:16:12.712Z,3.80
2018-06-19T04:17:12.717Z,3.20
2018-06-19T04:18:12.727Z,3.50
2018-06-19T04:19:12.708Z,3.50
2018-06-19T04:20:12.726Z,3.70
2018-06-19T04:21:12.747Z,3.60
2018-06-19T04:23:12.872Z,3.90
2018-06-19T04:24:12.880Z,3.50
2018-06-19T04:25:12.803Z,3.50
2018-06-19T04:26:12.829Z,3.10
2018-06-19T04:27:12.836Z,3.50
2018-06-19T04:28:14.600Z,3.50
2018-06-19T04:29:13.427Z,3.00
2018-06-19T04:30:14.779Z,3.60
2018-06-19T04:31:12.944Z,3.70
2018-06-19T04:32:12.919Z,3.50
2018-06-19T04:33:12.934Z,3.40
2018-06-19T04:34:12.948Z,3.20
2018-06-19T04:35:12.962Z,3.40
2018-06-19T04:36:13.004Z,3.80
2018-06-19T04:37:12.989Z,3.40
2018-06-19T04:38:13.005Z,3.60
2018-06-19T04:39:13.021Z,3.30
2018-06-19T04:40:13.040Z,3.20
2018-06-19T04:41:13.055Z,3.40
2018-06-19T04:42:13.070Z,3.60
2018-06-19T04:43:13.101Z,3.30
2018-06-19T04:44:13.768Z,3.20
2018-06-19T04:45:13.141Z,3.60
2018-06-19T04:46:13.138Z,3.50
2018-06-19T04:47:13.151Z,3.80
2018-06-19T04:48:13.165Z,3.60
2018-06-19T04:49:13.182Z,3.60
2018-06-19T04:50:13.217Z,3.40
2018-06-19T04:51:13.214Z,3.20
2018-06-19T04:52:13.233Z,3.30
2018-06-19T04:53:13.246Z,3.70
2018-06-19T04:54:13.262Z,3.50
2018-06-19T04:55:13.280Z,3.90
2018-06-19T04:56:13.295Z,3.90
2018-06-19T04:57:13.317Z,3.50
2018-06-19T04:58:13.329Z,3.50
2018-06-19T04:59:13.343Z,4.00
2018-06-19T05:00:13.358Z,3.30
2018-06-19T05:01:13.375Z,3.20
2018-06-19T05:02:13.391Z,4.00
2018-06-19T05:03:13.406Z,3.90
2018-06-19T05:04:13.496Z,3.60
2018-06-19T05:05:13.457Z,3.60
2018-06-19T05:06:13.461Z,3.60
2018-06-19T05:07:13.472Z,3.90
2018-06-19T05:08:13.487Z,3.30
2018-06-19T05:09:13.503Z,3.50
2018-06-19T05:10:13.521Z,3.50
2018-06-19T05:11:13.537Z,3.30
2018-06-19T05:12:13.554Z,4.10
2018-06-19T05:13:13.567Z,4.00
2018-06-19T05:14:13.590Z,3.50
2018-06-19T05:15:13.606Z,4.00
2018-06-19T05:16:13.617Z,3.70
2018-06-19T05:17:13.936Z,4.20
2018-06-19T05:18:13.648Z,3.90
2018-06-19T05:19:13.665Z,3.40
2018-06-19T05:20:13.700Z,3.70
2018-06-19T05:21:13.702Z,3.60
2018-06-19T05:22:13.733Z,4.00
2018-06-19T05:23:13.730Z,4.00
2018-06-19T05:24:13.747Z,3.60
2018-06-19T05:25:13.762Z,3.70
2018-06-19T05:26:13.852Z,4.20
2018-06-19T05:27:13.793Z,3.90
2018-06-19T05:28:13.859Z,4.10
2018-06-19T05:29:13.826Z,3.80
2018-06-19T05:30:13.885Z,3.90
2018-06-19T05:31:13.868Z,4.10
2018-06-19T05:32:13.874Z,4.30
2018-06-19T05:33:14.017Z,3.90
2018-06-19T05:34:13.907Z,4.10
2018-06-19T05:35:13.931Z,4.00
2018-06-19T05:36:13.939Z,4.30
2018-06-19T05:37:13.955Z,4.60
2018-06-19T05:38:13.980Z,3.90
2018-06-19T05:39:13.989Z,4.20
2018-06-19T05:40:14.005Z,4.50
2018-06-19T05:41:14.019Z,4.40
2018-06-19T05:42:14.038Z,4.20
2018-06-19T05:43:14.054Z,4.00
2018-06-19T05:44:14.069Z,3.30
2018-06-19T05:45:14.087Z,4.10
2018-06-19T05:46:14.110Z,4.00
2018-06-19T05:47:14.119Z,3.70
2018-06-19T05:48:14.133Z,4.00
2018-06-19T05:49:14.157Z,4.90
2018-06-19T05:50:14.168Z,4.20
2018-06-19T05:51:14.184Z,4.20
2018-06-19T05:52:15.029Z,4.50
2018-06-19T05:53:14.215Z,4.20
2018-06-19T05:54:14.238Z,4.80
2018-06-19T05:55:14.260Z,4.40
2018-06-19T05:56:15.476Z,4.50
2018-06-19T05:57:14.284Z,4.50
2018-06-19T05:58:14.296Z,4.10
2018-06-19T05:59:14.312Z,4.40
2018-06-19T06:00:14.347Z,4.80
2018-06-19T06:01:14.347Z,4.40
2018-06-19T06:02:14.369Z,4.60
2018-06-19T06:03:14.379Z,4.90
2018-06-19T06:04:14.392Z,4.30
2018-06-19T06:05:14.410Z,4.30
2018-06-19T06:06:14.426Z,4.60
2018-06-19T06:07:14.441Z,4.60
2018-06-19T06:08:14.460Z,4.90
2018-06-19T06:09:14.475Z,4.60
2018-06-19T06:10:14.492Z,4.80
2018-06-19T06:11:14.579Z,5.00
2018-06-19T06:12:14.545Z,4.90
2018-06-19T06:13:14.591Z,4.70
2018-06-19T06:14:14.572Z,5.20
2018-06-19T06:15:14.573Z,5.10
2018-06-19T06:16:14.588Z,5.10
2018-06-19T06:17:14.614Z,4.70
2018-06-19T06:18:14.629Z,5.40
2018-06-19T06:19:15.167Z,5.30
2018-06-19T06:20:14.654Z,4.50
2018-06-19T06:21:14.672Z,4.80
2018-06-19T06:22:14.698Z,5.70
2018-06-19T06:23:14.715Z,5.60
2018-06-19T06:24:14.717Z,5.60
2018-06-19T06:25:14.735Z,5.90
2018-06-19T06:26:14.755Z,5.40
2018-06-19T06:27:14.769Z,5.40
2018-06-19T06:28:14.791Z,5.60
2018-06-19T06:29:14.817Z,5.30
2018-06-19T06:30:14.817Z,5.60
2018-06-19T06:31:14.895Z,5.80
2018-06-19T06:32:14.850Z,5.50
2018-06-19T06:33:14.866Z,6.00
2018-06-19T06:34:14.882Z,6.00
2018-06-19T06:35:14.901Z,5.90
2018-06-19T06:36:14.914Z,6.00
2018-06-19T06:37:15.759Z,5.80
2018-06-19T06:38:14.952Z,6.10
2018-06-19T06:39:14.968Z,6.30
2018-06-19T06:40:14.991Z,5.60
2018-06-19T06:41:14.998Z,6.20
2018-06-19T06:42:15.013Z,6.60
2018-06-19T06:43:15.030Z,5.70
2018-06-19T06:45:15.128Z,6.00
2018-06-19T06:46:15.080Z,6.50
2018-06-19T06:47:15.105Z,6.30
2018-06-19T06:48:15.112Z,6.70
2018-06-19T06:49:15.132Z,6.20
2018-06-19T06:50:15.154Z,6.50
2018-06-19T06:51:16.503Z,6.60
2018-06-19T06:52:15.178Z,6.70
2018-06-19T06:53:15.195Z,6.50
2018-06-19T06:54:15.212Z,6.90
2018-06-19T06:55:15.242Z,6.80
2018-06-19T06:56:15.253Z,6.20
2018-06-19T06:57:15.868Z,6.00
2018-06-19T06:59:15.313Z,6.20
2018-06-19T07:00:15.313Z,6.50
2018-06-19T07:01:16.028Z,6.60
2018-06-19T07:02:15.353Z,6.70
2018-06-19T07:03:15.375Z,6.70
2018-06-19T07:04:15.381Z,6.60
2018-06-19T07:05:15.477Z,6.10
2018-06-19T07:06:15.447Z,6.80
2018-06-19T07:07:15.428Z,6.80
2018-06-19T07:08:15.530Z,7.00
2018-06-19T07:09:15.466Z,6.90
2018-06-19T07:10:15.504Z,7.40
2018-06-19T07:11:15.503Z,7.40
2018-06-19T07:12:15.517Z,7.10
2018-06-19T07:13:15.547Z,7.10
2018-06-19T07:14:15.552Z,7.50
2018-06-19T07:15:15.661Z,7.10
2018-06-19T07:16:15.584Z,7.30
2018-06-19T07:17:15.614Z,8.10
2018-06-19T07:18:15.617Z,8.50
2018-06-19T07:19:15.679Z,8.40
2018-06-19T07:20:15.648Z,7.30
2018-06-19T07:21:15.678Z,9.30
2018-06-19T07:22:15.688Z,16.00
2018-06-19T07:23:15.711Z,14.20
2018-06-19T07:24:15.730Z,17.00
2018-06-19T07:25:15.746Z,36.50
2018-06-19T07:26:16.018Z,13.40
2018-06-19T07:27:15.900Z,13.00
2018-06-19T07:28:15.784Z,21.30
2018-06-19T07:29:15.907Z,16.90
2018-06-19T07:30:16.136Z,14.80
2018-06-19T07:31:15.837Z,8.80
2018-06-19T07:32:16.845Z,9.10
2018-06-19T07:33:15.901Z,9.60
2018-06-19T07:34:16.298Z,12.90
2018-06-19T07:35:15.907Z,34.60
2018-06-19T07:36:16.785Z,12.60
2018-06-19T07:37:15.942Z,11.20
2018-06-19T07:41:16.151Z,10.00
2018-06-19T07:42:16.025Z,10.40
2018-06-19T07:43:16.055Z,10.10
2018-06-19T07:44:16.064Z,9.20
2018-06-19T07:45:16.078Z,9.70
2018-06-19T07:46:16.767Z,10.00
2018-06-19T07:47:16.253Z,10.80
2018-06-19T07:48:16.128Z,10.30
2018-06-19T07:49:16.144Z,10.40
2018-06-19T07:50:16.161Z,10.80
2018-06-19T07:51:16.180Z,11.10
2018-06-19T07:52:16.266Z,10.90
2018-06-19T07:53:16.215Z,10.80
2018-06-19T07:54:16.231Z,11.70
2018-06-19T07:55:16.261Z,10.90
2018-06-19T07:56:16.283Z,10.90
2018-06-19T07:57:16.302Z,11.50
2018-06-19T07:58:16.301Z,11.40
2018-06-19T07:59:16.404Z,12.20
2018-06-19T08:00:16.339Z,11.20
2018-06-19T08:01:16.369Z,11.90
2018-06-19T08:02:16.363Z,11.70
2018-06-19T08:03:16.399Z,11.60
2018-06-19T08:04:16.452Z,12.30
2018-06-19T08:05:16.419Z,12.20
2018-06-19T08:06:16.429Z,12.10
2018-06-19T08:07:16.458Z,11.80
2018-06-19T08:08:16.464Z,12.60
2018-06-19T08:09:16.500Z,13.00
2018-06-19T08:10:16.509Z,12.90
2018-06-19T08:11:16.882Z,12.70
2018-06-19T08:12:16.557Z,12.60
2018-06-19T08:13:16.550Z,12.80
2018-06-19T08:14:17.028Z,12.40
2018-06-19T08:15:16.586Z,12.80
2018-06-19T08:16:16.599Z,13.30
2018-06-19T08:17:16.627Z,13.30
2018-06-19T08:18:16.635Z,13.30
2018-06-19T08:19:16.653Z,13.50
2018-06-19T08:20:16.672Z,14.40
2018-06-19T08:21:16.740Z,13.50
2018-06-19T08:22:16.705Z,14.60
2018-06-19T08:23:16.724Z,14.50
2018-06-19T08:24:16.736Z,14.10
2018-06-19T08:25:16.755Z,15.20
2018-06-19T08:26:16.770Z,14.50
2018-06-19T08:27:16.795Z,15.10
2018-06-19T08:28:16.802Z,15.20
2018-06-19T08:29:17.200Z,15.90
2018-06-19T08:30:16.837Z,15.80
2018-06-19T08:31:16.858Z,15.80
2018-06-19T08:32:16.871Z,14.90
2018-06-19T08:33:17.130Z,15.30
2018-06-19T08:34:16.906Z,15.70
2018-06-19T08:35:16.922Z,15.30
2018-06-19T08:36:16.984Z,15.40
2018-06-19T08:37:16.956Z,15.30
2018-06-19T08:38:16.972Z,14.80
2018-06-19T08:39:16.989Z,15.20
2018-06-19T08:40:17.026Z,15.30
2018-06-19T08:41:17.024Z,16.30
2018-06-19T08:42:17.044Z,15.60
2018-06-19T08:43:17.090Z,16.10
2018-06-19T08:44:17.074Z,15.20
2018-06-19T08:45:17.089Z,15.30
2018-06-19T08:46:17.107Z,15.60
2018-06-19T08:47:17.123Z,16.60
2018-06-19T08:48:17.141Z,17.30
2018-06-19T08:49:17.159Z,18.00
2018-06-19T08:50:17.180Z,19.10
2018-06-19T08:51:17.193Z,18.50
2018-06-19T08:52:17.206Z,18.70
2018-06-19T08:53:17.232Z,18.90
2018-06-19T08:54:17.273Z,18.50
2018-06-19T08:55:17.311Z,20.30
2018-06-19T08:56:17.278Z,20.20
2018-06-19T08:57:17.300Z,19.10
2018-06-19T08:58:17.309Z,19.70
2018-06-19T08:59:17.329Z,19.30
2018-06-19T09:00:17.352Z,18.40
2018-06-19T09:01:17.365Z,18.90
2018-06-19T09:02:17.379Z,18.80
2018-06-19T09:03:17.397Z,18.90
2018-06-19T09:04:17.416Z,18.20
2018-06-19T09:05:17.429Z,17.50
2018-06-19T09:06:17.446Z,18.00
2018-06-19T09:07:17.477Z,17.90
2018-06-19T09:08:18.045Z,17.50
2018-06-19T09:09:17.498Z,18.20
2018-06-19T09:10:17.514Z,17.40
2018-06-19T09:11:17.572Z,17.20
2018-06-19T09:12:17.560Z,17.70
2018-06-19T09:13:17.760Z,17.40
2018-06-19T09:14:18.318Z,17.50
2018-06-19T09:15:17.604Z,17.70
2018-06-19T09:16:17.624Z,17.00
2018-06-19T09:17:17.689Z,17.50
2018-06-19T09:18:17.713Z,18.80
2018-06-19T09:19:17.676Z,17.90
2018-06-19T09:20:17.696Z,18.00
2018-06-19T09:21:17.710Z,18.40
2018-06-19T09:22:17.727Z,18.70
2018-06-19T09:23:17.759Z,18.60
2018-06-19T09:24:17.857Z,19.30
2018-06-19T09:25:17.891Z,18.30
2018-06-19T09:26:17.799Z,18.70
2018-06-19T09:27:17.832Z,17.50
2018-06-19T09:28:17.841Z,19.50
2018-06-19T09:29:17.849Z,19.20
2018-06-19T09:30:17.867Z,19.90
2018-06-19T09:31:17.906Z,19.10
2018-06-19T09:32:17.903Z,19.40
2018-06-19T09:33:17.923Z,19.00
2018-06-19T09:34:17.952Z,19.40
2018-06-19T09:35:17.962Z,19.40
2018-06-19T09:36:17.978Z,20.40
2018-06-19T09:37:17.990Z,19.40
2018-06-19T09:38:18.012Z,20.20
2018-06-19T09:39:18.027Z,18.40
2018-06-19T09:40:18.044Z,19.90
2018-06-19T09:41:18.062Z,19.40
2018-06-19T09:42:18.078Z,19.40
2018-06-19T09:43:18.138Z,20.00
2018-06-19T09:44:18.113Z,19.20
2018-06-19T09:45:18.131Z,20.40
2018-06-19T09:46:18.151Z,19.30
2018-06-19T09:47:18.168Z,19.20
2018-06-19T09:48:18.184Z,19.80
2018-06-19T09:49:18.201Z,20.70
2018-06-19T09:50:18.405Z,21.00
2018-06-19T09:51:18.809Z,21.00
2018-06-19T09:52:18.255Z,20.80
2018-06-19T09:53:18.272Z,20.50
2018-06-19T09:54:18.288Z,20.80
2018-06-19T09:55:18.308Z,20.80
2018-06-19T09:56:18.329Z,21.00
2018-06-19T09:57:18.346Z,21.00
2018-06-19T09:58:18.389Z,20.60
2018-06-19T09:59:18.397Z,20.40
2018-06-19T10:00:18.395Z,20.60
2018-06-19T10:01:18.412Z,20.10
2018-06-19T10:02:18.435Z,21.40
2018-06-19T10:03:18.459Z,20.70
2018-06-19T10:04:18.465Z,20.20
2018-06-19T10:05:18.483Z,20.90
2018-06-19T10:06:18.529Z,21.00
2018-06-19T10:07:18.519Z,20.40
2018-06-19T10:08:18.608Z,23.00
2018-06-19T10:09:18.553Z,21.70
2018-06-19T10:10:18.586Z,21.60
2018-06-19T10:11:18.606Z,20.80
2018-06-19T10:12:18.678Z,21.60
2018-06-19T10:13:19.337Z,21.30
2018-06-19T10:14:19.424Z,21.60
2018-06-19T10:16:18.675Z,21.10
2018-06-19T10:17:18.693Z,20.90
2018-06-19T10:18:18.713Z,20.40
2018-06-19T10:19:18.729Z,20.60
2018-06-19T10:20:18.746Z,21.00
2018-06-19T10:21:18.764Z,21.40
2018-06-19T10:22:18.781Z,21.60
2018-06-19T10:23:18.802Z,21.90
2018-06-19T10:24:18.829Z,21.30
2018-06-19T10:25:18.884Z,20.40
2018-06-19T10:26:18.858Z,20.80
2018-06-19T10:27:18.870Z,21.10
2018-06-19T10:28:18.901Z,22.30
2018-06-19T10:29:18.906Z,20.70
2018-06-19T10:30:18.923Z,20.40
2018-06-19T10:31:18.944Z,22.00
2018-06-19T10:32:18.959Z,21.70
2018-06-19T10:33:18.983Z,21.40
2018-06-19T10:34:18.994Z,22.10
2018-06-19T10:35:19.013Z,21.10
2018-06-19T10:36:19.037Z,21.40
2018-06-19T10:37:19.053Z,21.70
2018-06-19T10:38:19.070Z,21.60
2018-06-19T10:39:19.085Z,21.80
2018-06-19T10:40:19.159Z,21.90
2018-06-19T10:41:19.122Z,21.70
2018-06-19T10:42:19.137Z,21.00
2018-06-19T10:43:19.154Z,22.00
2018-06-19T10:44:19.181Z,22.40
2018-06-19T10:45:19.191Z,22.10
2018-06-19T10:46:19.213Z,21.00
2018-06-19T10:47:19.239Z,20.10
2018-06-19T10:48:19.244Z,21.60
2018-06-19T10:49:19.264Z,21.30
2018-06-19T10:50:19.284Z,21.00
2018-06-19T10:51:19.299Z,20.70
2018-06-19T10:52:19.321Z,20.80
2018-06-19T10:53:19.348Z,21.10
2018-06-19T10:54:19.357Z,20.30
2018-06-19T10:55:19.578Z,21.30
2018-06-19T10:56:19.445Z,20.60
2018-06-19T10:57:19.440Z,21.90
2018-06-19T10:58:19.489Z,20.70
2018-06-19T10:59:19.448Z,22.30
2018-06-19T11:00:19.471Z,21.80
2018-06-19T11:01:19.486Z,21.70
2018-06-19T11:02:19.504Z,21.60
2018-06-19T11:03:19.524Z,22.30
2018-06-19T11:04:19.542Z,23.20
2018-06-19T11:05:19.585Z,22.00
2018-06-19T11:06:19.595Z,21.80
2018-06-19T11:07:19.736Z,22.00
2018-06-19T11:08:19.669Z,21.90
2018-06-19T11:09:19.634Z,23.10
2018-06-19T11:10:19.663Z,21.80
2018-06-19T11:11:19.673Z,22.90
2018-06-19T11:12:19.775Z,21.90
2018-06-19T11:13:19.709Z,22.10
2018-06-19T11:14:19.735Z,22.80
2018-06-19T11:15:19.746Z,21.80
2018-06-19T11:16:19.768Z,22.40
2018-06-19T11:17:19.814Z,21.40
2018-06-19T11:18:19.803Z,22.60
2018-06-19T11:19:19.828Z,22.10
2018-06-19T11:20:19.941Z,23.00
2018-06-19T11:21:19.877Z,21.50
2018-06-19T11:22:19.879Z,21.40
2018-06-19T11:23:19.907Z,22.20
2018-06-19T11:24:19.917Z,21.10
2018-06-19T11:25:19.936Z,20.20
2018-06-19T11:26:20.255Z,21.30
2018-06-19T11:27:19.975Z,21.20
2018-06-19T11:28:19.992Z,20.40
2018-06-19T11:29:20.029Z,20.70
2018-06-19T11:30:20.037Z,21.50
2018-06-19T11:31:20.090Z,20.30
2018-06-19T11:32:20.079Z,20.90
2018-06-19T11:33:20.090Z,21.20
2018-06-19T11:34:20.117Z,20.40
2018-06-19T11:35:20.129Z,21.10
2018-06-19T11:36:20.152Z,21.30
2018-06-19T11:37:20.168Z,20.80
2018-06-19T11:38:20.182Z,20.50
2018-06-19T11:39:20.281Z,19.70
2018-06-19T11:40:20.240Z,19.50
2018-06-19T11:41:20.240Z,20.50
2018-06-19T11:42:20.262Z,19.50
2018-06-19T11:43:20.294Z,19.30
2018-06-19T11:44:20.340Z,20.20
2018-06-19T11:45:20.324Z,19.40
2018-06-19T11:46:20.341Z,19.20
2018-06-19T11:47:20.363Z,19.70
2018-06-19T11:48:20.388Z,19.80
2018-06-19T11:49:21.890Z,19.10
2018-06-19T11:50:20.441Z,20.10
2018-06-19T11:51:20.471Z,19.90
2018-06-19T11:52:20.457Z,19.00
2018-06-19T11:53:20.477Z,19.30
2018-06-19T11:54:20.498Z,19.30
2018-06-19T11:55:20.522Z,18.80
2018-06-19T11:56:20.534Z,18.80
2018-06-19T11:57:20.555Z,19.10
2018-06-19T11:58:21.024Z,19.10
2018-06-19T11:59:20.862Z,19.90
2018-06-19T12:00:20.610Z,20.00
2018-06-19T12:01:20.715Z,19.00
2018-06-19T12:04:21.639Z,19.50
2018-06-19T12:05:21.528Z,19.40
2018-06-19T12:06:21.822Z,18.10
2018-06-19T12:07:21.329Z,17.40
2018-06-19T12:08:21.167Z,17.50
2018-06-19T12:09:21.279Z,17.70
2018-06-19T12:10:20.822Z,18.10
2018-06-19T12:11:20.825Z,17.80
2018-06-19T12:12:21.910Z,18.10
2018-06-19T12:13:20.860Z,18.40
2018-06-19T12:14:21.132Z,18.80
2018-06-19T12:15:21.384Z,17.60
2018-06-19T12:17:20.954Z,17.60
2018-06-19T12:18:20.973Z,18.10
2018-06-19T12:19:20.991Z,17.90
2018-06-19T12:20:21.001Z,17.80
2018-06-19T12:21:21.019Z,17.50
2018-06-19T12:22:21.038Z,17.20
2018-06-19T12:23:21.087Z,16.60
2018-06-19T12:24:21.085Z,17.40
2018-06-19T12:25:21.097Z,16.60
2018-06-19T12:26:21.123Z,16.40
2018-06-19T12:27:21.146Z,15.90
2018-06-19T12:28:21.206Z,17.10
2018-06-19T12:29:21.301Z,16.80
2018-06-19T12:30:21.223Z,16.20
2018-06-19T12:31:21.229Z,16.80
2018-06-19T12:32:21.242Z,16.40
2018-06-19T12:33:21.365Z,16.90
2018-06-19T12:34:21.274Z,15.40
2018-06-19T12:35:21.327Z,16.90
2018-06-19T12:36:21.362Z,15.40
2018-06-19T12:37:21.395Z,16.60
2018-06-19T12:38:21.353Z,16.70
2018-06-19T12:39:21.396Z,15.80
2018-06-19T12:40:21.391Z,16.60
2018-06-19T12:41:21.419Z,16.70
2018-06-19T12:42:21.433Z,16.90
2018-06-19T12:43:21.460Z,16.80
2018-06-19T12:44:21.484Z,17.10
2018-06-19T12:45:21.487Z,18.60
2018-06-19T12:46:21.513Z,16.80
2018-06-19T12:47:21.532Z,17.00
2018-06-19T12:48:21.554Z,16.30
2018-06-19T12:49:21.569Z,17.00
2018-06-19T12:50:21.641Z,16.60
2018-06-19T12:51:21.610Z,16.20
2018-06-19T12:52:21.630Z,16.10
2018-06-19T12:53:21.650Z,16.10
2018-06-19T12:54:21.682Z,16.20
2018-06-19T12:55:21.703Z,16.80
2018-06-19T12:56:21.711Z,16.70
2018-06-19T12:57:21.732Z,16.70
2018-06-19T12:58:21.780Z,17.10
2018-06-19T12:59:21.805Z,16.30
2018-06-19T13:00:21.802Z,16.40
2018-06-19T13:01:21.817Z,14.80
2018-06-19T13:02:21.876Z,16.20
2018-06-19T13:03:21.913Z,16.00
2018-06-19T13:04:21.882Z,15.90
2018-06-19T13:05:21.952Z,16.10
2018-06-19T13:06:21.927Z,15.90
2018-06-19T13:08:21.977Z,15.80
2018-06-19T13:09:22.011Z,15.70
2018-06-19T13:10:22.182Z,16.20
2018-06-19T13:11:22.029Z,15.90
2018-06-19T13:12:22.046Z,15.30
2018-06-19T13:13:22.472Z,15.80
2018-06-19T13:14:22.086Z,15.70
2018-06-19T13:15:22.277Z,15.20
2018-06-19T13:16:22.216Z,15.60
2018-06-19T13:17:22.158Z,16.00
2018-06-19T13:18:22.171Z,15.50
2018-06-19T13:19:22.185Z,16.00
2018-06-19T13:20:22.436Z,14.80
2018-06-19T13:21:22.481Z,13.80
2018-06-19T13:22:22.246Z,14.00
2018-06-19T13:23:22.283Z,14.00
2018-06-19T13:24:22.409Z,14.00
2018-06-19T13:25:22.315Z,14.00
2018-06-19T13:26:22.329Z,15.00
2018-06-19T13:27:22.364Z,14.80